sensor_id;sensor_type;location;lat;lon;timestamp;P1;durP1;ratioP1;P2;durP2;ratioP2
20627;SDS011;10473;42.734;24.258;2023-12-28T00:00:39;0.00;;;0.00;;
20627;SDS011;10473;42.734;24.258;2023-12-28T00:03:07;0.00;;;0.00;;
20627;SDS011;10473;42.734;24.258;2023-12-28T00:05:34;0.00;;;0.00;;
20627;SDS011;10473;42.734;24.258;2023-12-28T00:08:02;0.47;;;0.47;;
20627;SDS011;10473;42.734;24.258;2023-12-28T00:10:30;1.70;;;0.30;;
20627;SDS011;10473;42.734;24.258;2023-12-28T00:12:58;0.10;;;0.10;;
20627;SDS011;10473;42.734;24.258;2023-12-28T00:15:27;0.33;;;0.30;;
20627;SDS011;10473;42.734;24.258;2023-12-28T00:17:54;1.37;;;0.40;;
20627;SDS011;10473;42.734;24.258;2023-12-28T00:20:23;0.67;;;0.67;;
20627;SDS011;10473;42.734;24.258;2023-12-28T00:22:50;0.20;;;0.20;;
20627;SDS011;10473;42.734;24.258;2023-12-28T00:25:18;0.10;;;0.10;;
20627;SDS011;10473;42.734;24.258;2023-12-28T00:27:46;0.23;;;0.23;;
20627;SDS011;10473;42.734;24.258;2023-12-28T00:30:14;0.17;;;0.17;;
20627;SDS011;10473;42.734;24.258;2023-12-28T00:32:44;0.57;;;0.53;;
20627;SDS011;10473;42.734;24.258;2023-12-28T00:35:12;0.50;;;0.40;;
20627;SDS011;10473;42.734;24.258;2023-12-28T00:37:40;0.00;;;0.00;;
20627;SDS011;10473;42.734;24.258;2023-12-28T00:40:08;0.10;;;0.10;;
20627;SDS011;10473;42.734;24.258;2023-12-28T00:42:36;0.00;;;0.00;;
20627;SDS011;10473;42.734;24.258;2023-12-28T00:45:08;0.57;;;0.37;;
20627;SDS011;10473;42.734;24.258;2023-12-28T00:47:36;0.00;;;0.00;;
20627;SDS011;10473;42.734;24.258;2023-12-28T00:50:05;0.23;;;0.23;;
20627;SDS011;10473;42.734;24.258;2023-12-28T00:52:33;0.00;;;0.00;;
20627;SDS011;10473;42.734;24.258;2023-12-28T00:55:01;0.30;;;0.17;;
20627;SDS011;10473;42.734;24.258;2023-12-28T00:57:29;0.20;;;0.20;;
20627;SDS011;10473;42.734;24.258;2023-12-28T00:59:57;0.00;;;0.00;;
20627;SDS011;10473;42.734;24.258;2023-12-28T01:02:25;0.10;;;0.10;;
20627;SDS011;10473;42.734;24.258;2023-12-28T01:04:53;0.27;;;0.27;;
20627;SDS011;10473;42.734;24.258;2023-12-28T01:07:22;0.20;;;0.10;;
20627;SDS011;10473;42.734;24.258;2023-12-28T01:09:50;0.10;;;0.10;;
20627;SDS011;10473;42.734;24.258;2023-12-28T01:12:18;0.00;;;0.00;;
20627;SDS011;10473;42.734;24.258;2023-12-28T01:14:46;0.20;;;0.20;;
20627;SDS011;10473;42.734;24.258;2023-12-28T01:17:14;0.07;;;0.07;;
20627;SDS011;10473;42.734;24.258;2023-12-28T01:19:42;0.20;;;0.20;;
20627;SDS011;10473;42.734;24.258;2023-12-28T01:22:10;0.03;;;0.03;;
20627;SDS011;10473;42.734;24.258;2023-12-28T01:24:40;0.00;;;0.00;;
20627;SDS011;10473;42.734;24.258;2023-12-28T01:27:08;0.30;;;0.30;;
20627;SDS011;10473;42.734;24.258;2023-12-28T01:29:35;0.00;;;0.00;;
20627;SDS011;10473;42.734;24.258;2023-12-28T01:32:03;0.17;;;0.17;;
20627;SDS011;10473;42.734;24.258;2023-12-28T01:34:32;0.00;;;0.00;;
20627;SDS011;10473;42.734;24.258;2023-12-28T01:36:59;0.00;;;0.00;;
20627;SDS011;10473;42.734;24.258;2023-12-28T01:39:27;0.00;;;0.00;;
20627;SDS011;10473;42.734;24.258;2023-12-28T01:41:56;0.00;;;0.00;;
20627;SDS011;10473;42.734;24.258;2023-12-28T01:44:25;0.00;;;0.00;;
20627;SDS011;10473;42.734;24.258;2023-12-28T01:46:52;0.00;;;0.00;;
20627;SDS011;10473;42.734;24.258;2023-12-28T01:49:20;0.00;;;0.00;;
20627;SDS011;10473;42.734;24.258;2023-12-28T01:51:48;0.00;;;0.00;;
20627;SDS011;10473;42.734;24.258;2023-12-28T01:54:17;0.17;;;0.17;;
20627;SDS011;10473;42.734;24.258;2023-12-28T01:56:44;0.30;;;0.30;;
20627;SDS011;10473;42.734;24.258;2023-12-28T01:59:14;0.00;;;0.00;;
20627;SDS011;10473;42.734;24.258;2023-12-28T02:01:42;0.67;;;0.53;;
20627;SDS011;10473;42.734;24.258;2023-12-28T02:04:10;0.00;;;0.00;;
20627;SDS011;10473;42.734;24.258;2023-12-28T02:06:38;0.57;;;0.57;;
20627;SDS011;10473;42.734;24.258;2023-12-28T02:09:06;0.40;;;0.30;;
20627;SDS011;10473;42.734;24.258;2023-12-28T02:11:33;0.10;;;0.10;;
20627;SDS011;10473;42.734;24.258;2023-12-28T02:14:03;0.00;;;0.00;;
20627;SDS011;10473;42.734;24.258;2023-12-28T02:16:33;0.20;;;0.20;;
20627;SDS011;10473;42.734;24.258;2023-12-28T02:19:08;0.20;;;0.20;;
20627;SDS011;10473;42.734;24.258;2023-12-28T02:21:45;0.83;;;0.77;;
20627;SDS011;10473;42.734;24.258;2023-12-28T02:24:14;0.13;;;0.13;;
20627;SDS011;10473;42.734;24.258;2023-12-28T02:26:43;0.00;;;0.00;;
20627;SDS011;10473;42.734;24.258;2023-12-28T02:29:11;0.00;;;0.00;;
20627;SDS011;10473;42.734;24.258;2023-12-28T02:31:39;0.00;;;0.00;;
20627;SDS011;10473;42.734;24.258;2023-12-28T02:34:14;0.00;;;0.00;;
20627;SDS011;10473;42.734;24.258;2023-12-28T02:36:46;0.00;;;0.00;;
20627;SDS011;10473;42.734;24.258;2023-12-28T02:39:15;0.00;;;0.00;;
20627;SDS011;10473;42.734;24.258;2023-12-28T02:41:45;0.00;;;0.00;;
20627;SDS011;10473;42.734;24.258;2023-12-28T02:44:13;0.00;;;0.00;;
20627;SDS011;10473;42.734;24.258;2023-12-28T02:46:41;0.17;;;0.10;;
20627;SDS011;10473;42.734;24.258;2023-12-28T02:49:09;0.00;;;0.00;;
20627;SDS011;10473;42.734;24.258;2023-12-28T02:51:37;0.00;;;0.00;;
20627;SDS011;10473;42.734;24.258;2023-12-28T02:54:05;0.00;;;0.00;;
20627;SDS011;10473;42.734;24.258;2023-12-28T02:56:33;0.00;;;0.00;;
20627;SDS011;10473;42.734;24.258;2023-12-28T02:59:02;0.20;;;0.10;;
20627;SDS011;10473;42.734;24.258;2023-12-28T03:01:30;0.00;;;0.00;;
20627;SDS011;10473;42.734;24.258;2023-12-28T03:03:58;0.00;;;0.00;;
20627;SDS011;10473;42.734;24.258;2023-12-28T03:06:25;0.00;;;0.00;;
20627;SDS011;10473;42.734;24.258;2023-12-28T03:08:53;0.23;;;0.23;;
20627;SDS011;10473;42.734;24.258;2023-12-28T03:11:21;0.10;;;0.10;;
20627;SDS011;10473;42.734;24.258;2023-12-28T03:13:49;0.00;;;0.00;;
20627;SDS011;10473;42.734;24.258;2023-12-28T03:16:18;0.30;;;0.30;;
20627;SDS011;10473;42.734;24.258;2023-12-28T03:18:45;0.90;;;0.90;;
20627;SDS011;10473;42.734;24.258;2023-12-28T03:21:13;0.73;;;0.60;;
20627;SDS011;10473;42.734;24.258;2023-12-28T03:23:41;0.20;;;0.20;;
20627;SDS011;10473;42.734;24.258;2023-12-28T03:26:08;0.07;;;0.07;;
20627;SDS011;10473;42.734;24.258;2023-12-28T03:28:36;0.20;;;0.20;;
20627;SDS011;10473;42.734;24.258;2023-12-28T03:31:04;0.00;;;0.00;;
20627;SDS011;10473;42.734;24.258;2023-12-28T03:33:33;0.10;;;0.10;;
20627;SDS011;10473;42.734;24.258;2023-12-28T03:36:00;0.10;;;0.10;;
20627;SDS011;10473;42.734;24.258;2023-12-28T03:38:29;0.40;;;0.33;;
20627;SDS011;10473;42.734;24.258;2023-12-28T03:40:56;0.57;;;0.17;;
20627;SDS011;10473;42.734;24.258;2023-12-28T03:43:24;0.00;;;0.00;;
20627;SDS011;10473;42.734;24.258;2023-12-28T03:45:52;0.00;;;0.00;;
20627;SDS011;10473;42.734;24.258;2023-12-28T03:48:20;0.00;;;0.00;;
20627;SDS011;10473;42.734;24.258;2023-12-28T03:50:49;0.00;;;0.00;;
20627;SDS011;10473;42.734;24.258;2023-12-28T03:53:17;0.00;;;0.00;;
20627;SDS011;10473;42.734;24.258;2023-12-28T03:55:45;0.00;;;0.00;;
20627;SDS011;10473;42.734;24.258;2023-12-28T03:58:12;0.00;;;0.00;;
20627;SDS011;10473;42.734;24.258;2023-12-28T04:00:40;0.00;;;0.00;;
20627;SDS011;10473;42.734;24.258;2023-12-28T04:03:07;0.00;;;0.00;;
20627;SDS011;10473;42.734;24.258;2023-12-28T04:05:36;0.00;;;0.00;;
20627;SDS011;10473;42.734;24.258;2023-12-28T04:08:06;0.00;;;0.00;;
20627;SDS011;10473;42.734;24.258;2023-12-28T04:10:34;0.00;;;0.00;;
20627;SDS011;10473;42.734;24.258;2023-12-28T04:13:03;1.50;;;0.20;;
20627;SDS011;10473;42.734;24.258;2023-12-28T04:15:31;0.00;;;0.00;;
20627;SDS011;10473;42.734;24.258;2023-12-28T04:17:58;0.00;;;0.00;;
20627;SDS011;10473;42.734;24.258;2023-12-28T04:20:28;0.00;;;0.00;;
20627;SDS011;10473;42.734;24.258;2023-12-28T04:22:55;0.00;;;0.00;;
20627;SDS011;10473;42.734;24.258;2023-12-28T04:25:25;0.00;;;0.00;;
20627;SDS011;10473;42.734;24.258;2023-12-28T04:27:52;0.93;;;0.93;;
20627;SDS011;10473;42.734;24.258;2023-12-28T04:30:20;1.87;;;1.00;;
20627;SDS011;10473;42.734;24.258;2023-12-28T04:32:48;1.27;;;1.17;;
20627;SDS011;10473;42.734;24.258;2023-12-28T04:35:15;0.37;;;0.37;;
20627;SDS011;10473;42.734;24.258;2023-12-28T04:37:43;0.77;;;0.53;;
20627;SDS011;10473;42.734;24.258;2023-12-28T04:40:11;1.67;;;1.27;;
20627;SDS011;10473;42.734;24.258;2023-12-28T04:42:41;3.40;;;1.33;;
20627;SDS011;10473;42.734;24.258;2023-12-28T04:45:09;2.77;;;1.40;;
20627;SDS011;10473;42.734;24.258;2023-12-28T04:47:37;2.20;;;0.40;;
20627;SDS011;10473;42.734;24.258;2023-12-28T04:50:06;0.00;;;0.00;;
20627;SDS011;10473;42.734;24.258;2023-12-28T04:52:34;0.23;;;0.23;;
20627;SDS011;10473;42.734;24.258;2023-12-28T04:55:01;0.10;;;0.10;;
20627;SDS011;10473;42.734;24.258;2023-12-28T04:57:29;0.10;;;0.10;;
20627;SDS011;10473;42.734;24.258;2023-12-28T04:59:58;0.80;;;0.80;;
20627;SDS011;10473;42.734;24.258;2023-12-28T05:02:26;0.00;;;0.00;;
20627;SDS011;10473;42.734;24.258;2023-12-28T05:04:54;0.73;;;0.73;;
20627;SDS011;10473;42.734;24.258;2023-12-28T05:07:21;0.50;;;0.50;;
20627;SDS011;10473;42.734;24.258;2023-12-28T05:09:49;0.73;;;0.73;;
20627;SDS011;10473;42.734;24.258;2023-12-28T05:12:17;1.17;;;0.40;;
20627;SDS011;10473;42.734;24.258;2023-12-28T05:14:45;0.00;;;0.00;;
20627;SDS011;10473;42.734;24.258;2023-12-28T05:17:14;0.40;;;0.40;;
20627;SDS011;10473;42.734;24.258;2023-12-28T05:19:42;0.40;;;0.40;;
20627;SDS011;10473;42.734;24.258;2023-12-28T05:22:09;0.00;;;0.00;;
20627;SDS011;10473;42.734;24.258;2023-12-28T05:24:41;0.10;;;0.00;;
20627;SDS011;10473;42.734;24.258;2023-12-28T05:27:09;0.00;;;0.00;;
20627;SDS011;10473;42.734;24.258;2023-12-28T05:29:37;0.00;;;0.00;;
20627;SDS011;10473;42.734;24.258;2023-12-28T05:32:05;0.10;;;0.10;;
20627;SDS011;10473;42.734;24.258;2023-12-28T05:34:34;0.10;;;0.10;;
20627;SDS011;10473;42.734;24.258;2023-12-28T05:37:02;0.57;;;0.57;;
20627;SDS011;10473;42.734;24.258;2023-12-28T05:39:30;0.00;;;0.00;;
20627;SDS011;10473;42.734;24.258;2023-12-28T05:41:57;0.10;;;0.10;;
20627;SDS011;10473;42.734;24.258;2023-12-28T05:44:25;0.30;;;0.30;;
20627;SDS011;10473;42.734;24.258;2023-12-28T05:46:53;0.57;;;0.57;;
20627;SDS011;10473;42.734;24.258;2023-12-28T05:49:20;1.00;;;0.10;;
20627;SDS011;10473;42.734;24.258;2023-12-28T05:51:49;0.10;;;0.10;;
20627;SDS011;10473;42.734;24.258;2023-12-28T05:54:17;0.30;;;0.27;;
20627;SDS011;10473;42.734;24.258;2023-12-28T05:56:45;0.30;;;0.30;;
20627;SDS011;10473;42.734;24.258;2023-12-28T05:59:13;0.13;;;0.13;;
20627;SDS011;10473;42.734;24.258;2023-12-28T06:01:41;0.40;;;0.40;;
20627;SDS011;10473;42.734;24.258;2023-12-28T06:04:09;0.20;;;0.20;;
20627;SDS011;10473;42.734;24.258;2023-12-28T06:06:37;0.20;;;0.20;;
20627;SDS011;10473;42.734;24.258;2023-12-28T06:09:06;0.17;;;0.17;;
20627;SDS011;10473;42.734;24.258;2023-12-28T06:11:34;0.30;;;0.30;;
20627;SDS011;10473;42.734;24.258;2023-12-28T06:14:02;0.20;;;0.17;;
20627;SDS011;10473;42.734;24.258;2023-12-28T06:16:30;0.13;;;0.13;;
20627;SDS011;10473;42.734;24.258;2023-12-28T06:18:59;0.33;;;0.33;;
20627;SDS011;10473;42.734;24.258;2023-12-28T06:21:27;0.97;;;0.97;;
20627;SDS011;10473;42.734;24.258;2023-12-28T06:23:56;0.83;;;0.83;;
20627;SDS011;10473;42.734;24.258;2023-12-28T06:26:25;0.93;;;0.93;;
20627;SDS011;10473;42.734;24.258;2023-12-28T06:28:53;2.27;;;0.73;;
20627;SDS011;10473;42.734;24.258;2023-12-28T06:31:24;1.20;;;1.20;;
20627;SDS011;10473;42.734;24.258;2023-12-28T06:33:52;2.73;;;1.87;;
20627;SDS011;10473;42.734;24.258;2023-12-28T06:36:19;2.83;;;1.43;;
20627;SDS011;10473;42.734;24.258;2023-12-28T06:38:47;8.03;;;1.07;;
20627;SDS011;10473;42.734;24.258;2023-12-28T06:41:15;1.27;;;1.17;;
20627;SDS011;10473;42.734;24.258;2023-12-28T06:43:47;1.07;;;0.67;;
20627;SDS011;10473;42.734;24.258;2023-12-28T06:46:15;1.13;;;1.03;;
20627;SDS011;10473;42.734;24.258;2023-12-28T06:48:43;1.60;;;1.50;;
20627;SDS011;10473;42.734;24.258;2023-12-28T06:51:15;0.70;;;0.70;;
20627;SDS011;10473;42.734;24.258;2023-12-28T06:56:37;1.63;;;1.40;;
20627;SDS011;10473;42.734;24.258;2023-12-28T06:59:05;6.97;;;2.93;;
20627;SDS011;10473;42.734;24.258;2023-12-28T07:01:33;3.13;;;2.83;;
20627;SDS011;10473;42.734;24.258;2023-12-28T07:04:01;4.20;;;3.87;;
20627;SDS011;10473;42.734;24.258;2023-12-28T07:06:29;2.80;;;2.60;;
20627;SDS011;10473;42.734;24.258;2023-12-28T07:08:56;4.73;;;4.33;;
20627;SDS011;10473;42.734;24.258;2023-12-28T07:11:25;5.03;;;4.13;;
20627;SDS011;10473;42.734;24.258;2023-12-28T07:14:22;4.53;;;2.30;;
20627;SDS011;10473;42.734;24.258;2023-12-28T07:16:49;4.90;;;2.23;;
20627;SDS011;10473;42.734;24.258;2023-12-28T07:19:17;3.17;;;1.63;;
20627;SDS011;10473;42.734;24.258;2023-12-28T07:21:45;3.40;;;2.43;;
20627;SDS011;10473;42.734;24.258;2023-12-28T07:24:13;1.67;;;1.57;;
20627;SDS011;10473;42.734;24.258;2023-12-28T07:26:41;3.20;;;2.53;;
20627;SDS011;10473;42.734;24.258;2023-12-28T07:29:09;2.13;;;1.93;;
20627;SDS011;10473;42.734;24.258;2023-12-28T07:31:38;18.57;;;3.20;;
20627;SDS011;10473;42.734;24.258;2023-12-28T07:34:06;4.93;;;1.90;;
20627;SDS011;10473;42.734;24.258;2023-12-28T07:36:35;4.57;;;3.63;;
20627;SDS011;10473;42.734;24.258;2023-12-28T07:39:06;4.40;;;3.27;;
20627;SDS011;10473;42.734;24.258;2023-12-28T07:41:34;3.30;;;2.37;;
20627;SDS011;10473;42.734;24.258;2023-12-28T07:44:02;2.20;;;1.90;;
20627;SDS011;10473;42.734;24.258;2023-12-28T07:46:29;2.53;;;1.47;;
20627;SDS011;10473;42.734;24.258;2023-12-28T07:49:00;2.63;;;2.13;;
20627;SDS011;10473;42.734;24.258;2023-12-28T07:51:27;3.30;;;3.00;;
20627;SDS011;10473;42.734;24.258;2023-12-28T07:53:55;7.40;;;2.13;;
20627;SDS011;10473;42.734;24.258;2023-12-28T07:56:23;3.60;;;2.80;;
20627;SDS011;10473;42.734;24.258;2023-12-28T07:58:51;1.70;;;1.60;;
20627;SDS011;10473;42.734;24.258;2023-12-28T08:01:19;3.70;;;2.53;;
20627;SDS011;10473;42.734;24.258;2023-12-28T08:03:46;3.63;;;2.30;;
20627;SDS011;10473;42.734;24.258;2023-12-28T08:06:16;5.60;;;2.67;;
20627;SDS011;10473;42.734;24.258;2023-12-28T08:08:43;9.37;;;4.73;;
20627;SDS011;10473;42.734;24.258;2023-12-28T08:11:13;6.63;;;3.27;;
20627;SDS011;10473;42.734;24.258;2023-12-28T08:13:41;4.80;;;3.00;;
20627;SDS011;10473;42.734;24.258;2023-12-28T08:16:10;3.43;;;3.13;;
20627;SDS011;10473;42.734;24.258;2023-12-28T08:18:38;7.87;;;3.97;;
20627;SDS011;10473;42.734;24.258;2023-12-28T08:21:08;4.03;;;2.87;;
20627;SDS011;10473;42.734;24.258;2023-12-28T08:23:38;4.47;;;1.93;;
20627;SDS011;10473;42.734;24.258;2023-12-28T08:26:06;3.63;;;2.53;;
20627;SDS011;10473;42.734;24.258;2023-12-28T08:28:34;2.80;;;2.47;;
20627;SDS011;10473;42.734;24.258;2023-12-28T08:31:02;2.03;;;1.90;;
20627;SDS011;10473;42.734;24.258;2023-12-28T08:33:30;1.53;;;1.43;;
20627;SDS011;10473;42.734;24.258;2023-12-28T08:35:58;2.83;;;1.33;;
20627;SDS011;10473;42.734;24.258;2023-12-28T08:38:26;1.00;;;1.00;;
20627;SDS011;10473;42.734;24.258;2023-12-28T08:40:55;1.27;;;1.17;;
20627;SDS011;10473;42.734;24.258;2023-12-28T08:43:23;1.67;;;1.40;;
20627;SDS011;10473;42.734;24.258;2023-12-28T08:45:53;4.70;;;2.03;;
20627;SDS011;10473;42.734;24.258;2023-12-28T08:48:21;5.07;;;1.77;;
20627;SDS011;10473;42.734;24.258;2023-12-28T08:50:50;3.27;;;2.30;;
20627;SDS011;10473;42.734;24.258;2023-12-28T08:53:18;2.20;;;1.17;;
20627;SDS011;10473;42.734;24.258;2023-12-28T08:55:47;2.60;;;1.90;;
20627;SDS011;10473;42.734;24.258;2023-12-28T08:58:18;2.87;;;1.73;;
20627;SDS011;10473;42.734;24.258;2023-12-28T09:00:46;2.70;;;1.97;;
20627;SDS011;10473;42.734;24.258;2023-12-28T09:03:14;3.60;;;1.13;;
20627;SDS011;10473;42.734;24.258;2023-12-28T09:05:45;3.23;;;2.00;;
20627;SDS011;10473;42.734;24.258;2023-12-28T09:08:13;0.70;;;0.70;;
20627;SDS011;10473;42.734;24.258;2023-12-28T09:10:40;2.43;;;2.00;;
20627;SDS011;10473;42.734;24.258;2023-12-28T09:13:08;0.83;;;0.83;;
20627;SDS011;10473;42.734;24.258;2023-12-28T09:15:44;0.90;;;0.80;;
20627;SDS011;10473;42.734;24.258;2023-12-28T09:18:13;1.03;;;0.90;;
20627;SDS011;10473;42.734;24.258;2023-12-28T09:20:40;1.47;;;0.90;;
20627;SDS011;10473;42.734;24.258;2023-12-28T09:23:09;1.57;;;1.30;;
20627;SDS011;10473;42.734;24.258;2023-12-28T09:25:36;0.40;;;0.30;;
20627;SDS011;10473;42.734;24.258;2023-12-28T09:28:04;0.30;;;0.30;;
20627;SDS011;10473;42.734;24.258;2023-12-28T09:30:32;0.50;;;0.50;;
20627;SDS011;10473;42.734;24.258;2023-12-28T09:33:02;1.23;;;1.00;;
20627;SDS011;10473;42.734;24.258;2023-12-28T09:35:30;1.73;;;1.40;;
20627;SDS011;10473;42.734;24.258;2023-12-28T09:37:58;1.00;;;1.00;;
20627;SDS011;10473;42.734;24.258;2023-12-28T09:40:26;0.57;;;0.57;;
20627;SDS011;10473;42.734;24.258;2023-12-28T09:42:56;0.67;;;0.53;;
20627;SDS011;10473;42.734;24.258;2023-12-28T09:45:29;0.50;;;0.50;;
20627;SDS011;10473;42.734;24.258;2023-12-28T09:47:57;0.70;;;0.70;;
20627;SDS011;10473;42.734;24.258;2023-12-28T09:50:28;0.60;;;0.60;;
20627;SDS011;10473;42.734;24.258;2023-12-28T09:52:56;0.67;;;0.47;;
20627;SDS011;10473;42.734;24.258;2023-12-28T09:55:24;0.67;;;0.67;;
20627;SDS011;10473;42.734;24.258;2023-12-28T09:57:52;0.40;;;0.40;;
20627;SDS011;10473;42.734;24.258;2023-12-28T10:00:22;0.50;;;0.50;;
20627;SDS011;10473;42.734;24.258;2023-12-28T10:02:56;2.67;;;2.03;;
20627;SDS011;10473;42.734;24.258;2023-12-28T10:05:26;1.05;;;0.95;;
20627;SDS011;10473;42.734;24.258;2023-12-28T10:07:55;0.38;;;0.38;;
20627;SDS011;10473;42.734;24.258;2023-12-28T10:10:24;0.97;;;0.50;;
20627;SDS011;10473;42.734;24.258;2023-12-28T10:12:52;0.68;;;0.68;;
20627;SDS011;10473;42.734;24.258;2023-12-28T10:15:19;2.28;;;2.08;;
20627;SDS011;10473;42.734;24.258;2023-12-28T10:17:47;1.58;;;0.80;;
20627;SDS011;10473;42.734;24.258;2023-12-28T10:20:15;3.65;;;1.92;;
20627;SDS011;10473;42.734;24.258;2023-12-28T10:22:44;0.40;;;0.40;;
20627;SDS011;10473;42.734;24.258;2023-12-28T10:25:12;0.52;;;0.30;;
20627;SDS011;10473;42.734;24.258;2023-12-28T10:27:40;0.35;;;0.25;;
20627;SDS011;10473;42.734;24.258;2023-12-28T10:30:08;1.38;;;0.88;;
20627;SDS011;10473;42.734;24.258;2023-12-28T10:32:39;1.00;;;0.80;;
20627;SDS011;10473;42.734;24.258;2023-12-28T10:35:07;0.40;;;0.40;;
20627;SDS011;10473;42.734;24.258;2023-12-28T10:37:35;1.38;;;0.60;;
20627;SDS011;10473;42.734;24.258;2023-12-28T10:40:12;1.02;;;0.75;;
20627;SDS011;10473;42.734;24.258;2023-12-28T10:42:46;0.57;;;0.57;;
20627;SDS011;10473;42.734;24.258;2023-12-28T10:45:22;1.05;;;0.40;;
20627;SDS011;10473;42.734;24.258;2023-12-28T10:47:56;0.52;;;0.43;;
20627;SDS011;10473;42.734;24.258;2023-12-28T10:50:38;0.70;;;0.70;;
20627;SDS011;10473;42.734;24.258;2023-12-28T10:56:05;1.98;;;1.45;;
20627;SDS011;10473;42.734;24.258;2023-12-28T10:58:47;0.40;;;0.40;;
20627;SDS011;10473;42.734;24.258;2023-12-28T11:01:20;0.60;;;0.60;;
20627;SDS011;10473;42.734;24.258;2023-12-28T11:03:52;0.75;;;0.57;;
20627;SDS011;10473;42.734;24.258;2023-12-28T11:06:26;0.93;;;0.93;;
20627;SDS011;10473;42.734;24.258;2023-12-28T11:08:55;0.50;;;0.50;;
20627;SDS011;10473;42.734;24.258;2023-12-28T11:11:26;0.30;;;0.30;;
20627;SDS011;10473;42.734;24.258;2023-12-28T11:13:55;0.45;;;0.45;;
20627;SDS011;10473;42.734;24.258;2023-12-28T11:16:23;0.60;;;0.60;;
20627;SDS011;10473;42.734;24.258;2023-12-28T11:18:52;1.15;;;0.60;;
20627;SDS011;10473;42.734;24.258;2023-12-28T11:21:21;0.60;;;0.50;;
20627;SDS011;10473;42.734;24.258;2023-12-28T11:23:50;0.73;;;0.73;;
20627;SDS011;10473;42.734;24.258;2023-12-28T11:26:18;0.52;;;0.52;;
20627;SDS011;10473;42.734;24.258;2023-12-28T11:28:48;0.50;;;0.50;;
20627;SDS011;10473;42.734;24.258;2023-12-28T11:31:17;0.90;;;0.90;;
20627;SDS011;10473;42.734;24.258;2023-12-28T11:33:45;0.95;;;0.57;;
20627;SDS011;10473;42.734;24.258;2023-12-28T11:36:19;0.50;;;0.50;;
20627;SDS011;10473;42.734;24.258;2023-12-28T11:38:51;1.02;;;0.93;;
20627;SDS011;10473;42.734;24.258;2023-12-28T11:41:22;0.98;;;0.60;;
20627;SDS011;10473;42.734;24.258;2023-12-28T11:43:54;0.80;;;0.73;;
20627;SDS011;10473;42.734;24.258;2023-12-28T11:46:22;1.48;;;0.70;;
20627;SDS011;10473;42.734;24.258;2023-12-28T11:48:50;0.60;;;0.60;;
20627;SDS011;10473;42.734;24.258;2023-12-28T11:51:17;1.17;;;1.08;;
20627;SDS011;10473;42.734;24.258;2023-12-28T11:53:46;0.60;;;0.60;;
20627;SDS011;10473;42.734;24.258;2023-12-28T11:56:15;1.40;;;0.95;;
20627;SDS011;10473;42.734;24.258;2023-12-28T11:58:43;0.47;;;0.45;;
20627;SDS011;10473;42.734;24.258;2023-12-28T12:01:18;0.45;;;0.40;;
20627;SDS011;10473;42.734;24.258;2023-12-28T12:03:46;0.80;;;0.80;;
20627;SDS011;10473;42.734;24.258;2023-12-28T12:06:14;0.70;;;0.60;;
20627;SDS011;10473;42.734;24.258;2023-12-28T12:08:44;1.17;;;0.85;;
20627;SDS011;10473;42.734;24.258;2023-12-28T12:11:12;0.47;;;0.47;;
20627;SDS011;10473;42.734;24.258;2023-12-28T12:13:40;0.50;;;0.50;;
20627;SDS011;10473;42.734;24.258;2023-12-28T12:16:08;0.93;;;0.63;;
20627;SDS011;10473;42.734;24.258;2023-12-28T12:18:37;0.90;;;0.80;;
20627;SDS011;10473;42.734;24.258;2023-12-28T12:21:05;0.60;;;0.60;;
20627;SDS011;10473;42.734;24.258;2023-12-28T12:23:32;0.70;;;0.70;;
20627;SDS011;10473;42.734;24.258;2023-12-28T12:26:00;1.38;;;0.73;;
20627;SDS011;10473;42.734;24.258;2023-12-28T12:28:31;0.73;;;0.73;;
20627;SDS011;10473;42.734;24.258;2023-12-28T12:30:59;0.90;;;0.70;;
20627;SDS011;10473;42.734;24.258;2023-12-28T12:33:28;1.95;;;1.17;;
20627;SDS011;10473;42.734;24.258;2023-12-28T12:35:59;0.85;;;0.73;;
20627;SDS011;10473;42.734;24.258;2023-12-28T12:38:28;0.93;;;0.70;;
20627;SDS011;10473;42.734;24.258;2023-12-28T12:40:57;2.63;;;1.58;;
20627;SDS011;10473;42.734;24.258;2023-12-28T12:43:25;1.25;;;1.10;;
20627;SDS011;10473;42.734;24.258;2023-12-28T12:45:53;1.20;;;1.10;;
20627;SDS011;10473;42.734;24.258;2023-12-28T12:48:21;5.05;;;1.60;;
20627;SDS011;10473;42.734;24.258;2023-12-28T12:50:48;1.50;;;1.13;;
20627;SDS011;10473;42.734;24.258;2023-12-28T12:53:18;2.42;;;1.40;;
20627;SDS011;10473;42.734;24.258;2023-12-28T12:55:46;0.82;;;0.82;;
20627;SDS011;10473;42.734;24.258;2023-12-28T12:58:14;0.80;;;0.80;;
20627;SDS011;10473;42.734;24.258;2023-12-28T13:00:44;1.95;;;1.23;;
20627;SDS011;10473;42.734;24.258;2023-12-28T13:03:12;2.80;;;2.10;;
20627;SDS011;10473;42.734;24.258;2023-12-28T13:05:40;1.65;;;1.15;;
20627;SDS011;10473;42.734;24.258;2023-12-28T13:08:10;2.03;;;1.40;;
20627;SDS011;10473;42.734;24.258;2023-12-28T13:10:39;3.08;;;1.50;;
20627;SDS011;10473;42.734;24.258;2023-12-28T13:13:07;3.92;;;1.17;;
20627;SDS011;10473;42.734;24.258;2023-12-28T13:15:35;0.85;;;0.65;;
20627;SDS011;10473;42.734;24.258;2023-12-28T13:18:03;2.67;;;1.30;;
20627;SDS011;10473;42.734;24.258;2023-12-28T13:20:30;1.13;;;1.10;;
20627;SDS011;10473;42.734;24.258;2023-12-28T13:22:58;1.17;;;1.10;;
20627;SDS011;10473;42.734;24.258;2023-12-28T13:25:26;0.80;;;0.80;;
20627;SDS011;10473;42.734;24.258;2023-12-28T13:27:55;1.75;;;0.82;;
20627;SDS011;10473;42.734;24.258;2023-12-28T13:30:23;0.55;;;0.55;;
20627;SDS011;10473;42.734;24.258;2023-12-28T13:32:54;3.00;;;1.95;;
20627;SDS011;10473;42.734;24.258;2023-12-28T13:35:22;2.83;;;2.00;;
20627;SDS011;10473;42.734;24.258;2023-12-28T13:37:50;3.27;;;1.87;;
20627;SDS011;10473;42.734;24.258;2023-12-28T13:40:17;2.17;;;1.93;;
20627;SDS011;10473;42.734;24.258;2023-12-28T13:42:45;2.43;;;1.67;;
20627;SDS011;10473;42.734;24.258;2023-12-28T13:45:14;2.13;;;1.90;;
20627;SDS011;10473;42.734;24.258;2023-12-28T13:47:45;2.27;;;1.43;;
20627;SDS011;10473;42.734;24.258;2023-12-28T13:50:17;1.27;;;1.17;;
20627;SDS011;10473;42.734;24.258;2023-12-28T13:52:46;2.93;;;2.67;;
20627;SDS011;10473;42.734;24.258;2023-12-28T13:55:14;1.73;;;1.33;;
20627;SDS011;10473;42.734;24.258;2023-12-28T13:57:42;2.33;;;1.60;;
20627;SDS011;10473;42.734;24.258;2023-12-28T14:00:10;2.47;;;2.27;;
20627;SDS011;10473;42.734;24.258;2023-12-28T14:02:42;1.03;;;1.03;;
20627;SDS011;10473;42.734;24.258;2023-12-28T14:05:11;0.83;;;0.83;;
20627;SDS011;10473;42.734;24.258;2023-12-28T14:07:38;1.20;;;0.80;;
20627;SDS011;10473;42.734;24.258;2023-12-28T14:10:11;4.43;;;1.37;;
20627;SDS011;10473;42.734;24.258;2023-12-28T14:12:39;1.30;;;1.10;;
20627;SDS011;10473;42.734;24.258;2023-12-28T14:15:12;1.80;;;1.43;;
20627;SDS011;10473;42.734;24.258;2023-12-28T14:17:44;1.57;;;1.47;;
20627;SDS011;10473;42.734;24.258;2023-12-28T14:20:13;6.97;;;3.73;;
20627;SDS011;10473;42.734;24.258;2023-12-28T14:22:42;1.83;;;1.03;;
20627;SDS011;10473;42.734;24.258;2023-12-28T14:25:14;5.20;;;2.17;;
20627;SDS011;10473;42.734;24.258;2023-12-28T14:27:45;5.67;;;3.73;;
20627;SDS011;10473;42.734;24.258;2023-12-28T14:30:17;10.03;;;6.50;;
20627;SDS011;10473;42.734;24.258;2023-12-28T14:32:49;6.07;;;3.87;;
20627;SDS011;10473;42.734;24.258;2023-12-28T14:35:24;8.90;;;5.63;;
20627;SDS011;10473;42.734;24.258;2023-12-28T14:37:52;3.73;;;3.20;;
20627;SDS011;10473;42.734;24.258;2023-12-28T14:40:21;11.10;;;5.77;;
20627;SDS011;10473;42.734;24.258;2023-12-28T14:42:49;5.40;;;3.63;;
20627;SDS011;10473;42.734;24.258;2023-12-28T14:45:17;3.27;;;2.33;;
20627;SDS011;10473;42.734;24.258;2023-12-28T14:47:51;2.63;;;2.33;;